sensor_id;sensor_type;location;lat;lon;timestamp;P1;durP1;ratioP1;P2;durP2;ratioP2
71366;SDS011;60030;52.274;8.040;2022-12-18T00:02:04;36.93;;;18.53;;
71366;SDS011;60030;52.274;8.040;2022-12-18T00:04:31;35.97;;;18.67;;
71366;SDS011;60030;52.274;8.040;2022-12-18T00:06:59;31.23;;;17.07;;
71366;SDS011;60030;52.274;8.040;2022-12-18T00:09:27;30.13;;;17.23;;
71366;SDS011;60030;52.274;8.040;2022-12-18T00:11:54;33.73;;;18.33;;
71366;SDS011;60030;52.274;8.040;2022-12-18T00:14:22;37.13;;;18.30;;
71366;SDS011;60030;52.274;8.040;2022-12-18T00:16:49;33.30;;;17.47;;
71366;SDS011;60030;52.274;8.040;2022-12-18T00:19:17;33.03;;;18.17;;
71366;SDS011;60030;52.274;8.040;2022-12-18T00:21:44;27.17;;;16.43;;
71366;SDS011;60030;52.274;8.040;2022-12-18T00:24:13;34.20;;;16.70;;
71366;SDS011;60030;52.274;8.040;2022-12-18T00:26:40;30.47;;;16.13;;
71366;SDS011;60030;52.274;8.040;2022-12-18T00:29:07;31.17;;;16.23;;
71366;SDS011;60030;52.274;8.040;2022-12-18T00:31:39;39.43;;;17.87;;
71366;SDS011;60030;52.274;8.040;2022-12-18T00:34:08;26.77;;;16.67;;
71366;SDS011;60030;52.274;8.040;2022-12-18T00:36:39;31.70;;;16.57;;
71366;SDS011;60030;52.274;8.040;2022-12-18T00:39:07;32.40;;;17.17;;
71366;SDS011;60030;52.274;8.040;2022-12-18T00:41:37;28.80;;;16.10;;
71366;SDS011;60030;52.274;8.040;2022-12-18T00:44:22;29.97;;;16.70;;
71366;SDS011;60030;52.274;8.040;2022-12-18T00:46:50;35.07;;;17.00;;
71366;SDS011;60030;52.274;8.040;2022-12-18T00:49:17;29.90;;;16.87;;
71366;SDS011;60030;52.274;8.040;2022-12-18T00:51:45;32.27;;;17.27;;
71366;SDS011;60030;52.274;8.040;2022-12-18T00:54:12;35.10;;;16.33;;
71366;SDS011;60030;52.274;8.040;2022-12-18T00:56:41;32.77;;;16.83;;
71366;SDS011;60030;52.274;8.040;2022-12-18T00:59:08;26.70;;;15.87;;
71366;SDS011;60030;52.274;8.040;2022-12-18T01:01:37;33.00;;;17.93;;
71366;SDS011;60030;52.274;8.040;2022-12-18T01:04:05;33.33;;;17.97;;
71366;SDS011;60030;52.274;8.040;2022-12-18T01:06:32;29.57;;;16.60;;
71366;SDS011;60030;52.274;8.040;2022-12-18T01:09:00;30.03;;;16.70;;
71366;SDS011;60030;52.274;8.040;2022-12-18T01:11:28;30.03;;;15.53;;
71366;SDS011;60030;52.274;8.040;2022-12-18T01:13:56;29.27;;;16.00;;
71366;SDS011;60030;52.274;8.040;2022-12-18T01:16:26;30.87;;;16.20;;
71366;SDS011;60030;52.274;8.040;2022-12-18T01:18:54;32.47;;;16.10;;
71366;SDS011;60030;52.274;8.040;2022-12-18T01:21:21;27.63;;;15.47;;
71366;SDS011;60030;52.274;8.040;2022-12-18T01:23:50;28.23;;;15.23;;
71366;SDS011;60030;52.274;8.040;2022-12-18T01:26:18;31.23;;;15.37;;
71366;SDS011;60030;52.274;8.040;2022-12-18T01:28:45;30.23;;;15.27;;
71366;SDS011;60030;52.274;8.040;2022-12-18T01:31:15;28.47;;;15.17;;
71366;SDS011;60030;52.274;8.040;2022-12-18T01:33:45;29.37;;;15.00;;
71366;SDS011;60030;52.274;8.040;2022-12-18T01:36:18;26.80;;;14.23;;
71366;SDS011;60030;52.274;8.040;2022-12-18T01:38:47;26.17;;;13.60;;
71366;SDS011;60030;52.274;8.040;2022-12-18T01:41:16;27.43;;;14.27;;
71366;SDS011;60030;52.274;8.040;2022-12-18T01:43:46;25.80;;;13.87;;
71366;SDS011;60030;52.274;8.040;2022-12-18T01:46:20;28.17;;;14.50;;
71366;SDS011;60030;52.274;8.040;2022-12-18T01:48:56;24.40;;;13.73;;
71366;SDS011;60030;52.274;8.040;2022-12-18T01:51:25;26.43;;;13.97;;
71366;SDS011;60030;52.274;8.040;2022-12-18T01:53:54;24.67;;;13.97;;
71366;SDS011;60030;52.274;8.040;2022-12-18T01:56:21;28.43;;;14.13;;
71366;SDS011;60030;52.274;8.040;2022-12-18T01:58:51;25.67;;;13.40;;
71366;SDS011;60030;52.274;8.040;2022-12-18T02:01:23;23.13;;;12.77;;
71366;SDS011;60030;52.274;8.040;2022-12-18T02:03:50;25.90;;;13.03;;
71366;SDS011;60030;52.274;8.040;2022-12-18T02:06:20;21.30;;;13.10;;
71366;SDS011;60030;52.274;8.040;2022-12-18T02:09:02;22.80;;;13.17;;
71366;SDS011;60030;52.274;8.040;2022-12-18T02:11:39;22.00;;;13.87;;
71366;SDS011;60030;52.274;8.040;2022-12-18T02:14:15;23.13;;;13.10;;
71366;SDS011;60030;52.274;8.040;2022-12-18T02:16:51;18.57;;;12.93;;
71366;SDS011;60030;52.274;8.040;2022-12-18T02:19:32;21.03;;;12.83;;
71366;SDS011;60030;52.274;8.040;2022-12-18T02:22:11;23.97;;;11.77;;
71366;SDS011;60030;52.274;8.040;2022-12-18T02:24:53;19.13;;;11.80;;
71366;SDS011;60030;52.274;8.040;2022-12-18T02:27:28;22.53;;;12.07;;
71366;SDS011;60030;52.274;8.040;2022-12-18T02:29:59;17.70;;;11.03;;
71366;SDS011;60030;52.274;8.040;2022-12-18T02:32:30;20.30;;;12.30;;
71366;SDS011;60030;52.274;8.040;2022-12-18T02:35:00;22.50;;;12.00;;
71366;SDS011;60030;52.274;8.040;2022-12-18T02:37:31;22.17;;;11.23;;
71366;SDS011;60030;52.274;8.040;2022-12-18T02:40:02;20.87;;;11.57;;
71366;SDS011;60030;52.274;8.040;2022-12-18T02:42:34;19.00;;;10.57;;
71366;SDS011;60030;52.274;8.040;2022-12-18T02:45:04;20.43;;;11.40;;
71366;SDS011;60030;52.274;8.040;2022-12-18T02:47:35;19.03;;;11.17;;
71366;SDS011;60030;52.274;8.040;2022-12-18T02:50:07;19.53;;;11.27;;
71366;SDS011;60030;52.274;8.040;2022-12-18T02:52:44;22.10;;;12.30;;
71366;SDS011;60030;52.274;8.040;2022-12-18T02:55:20;23.37;;;10.83;;
71366;SDS011;60030;52.274;8.040;2022-12-18T02:58:02;19.87;;;11.30;;
71366;SDS011;60030;52.274;8.040;2022-12-18T03:00:37;19.63;;;11.17;;
71366;SDS011;60030;52.274;8.040;2022-12-18T03:03:10;21.77;;;11.30;;
71366;SDS011;60030;52.274;8.040;2022-12-18T03:05:46;18.03;;;10.90;;
71366;SDS011;60030;52.274;8.040;2022-12-18T03:08:19;20.33;;;11.20;;
71366;SDS011;60030;52.274;8.040;2022-12-18T03:10:49;19.67;;;11.40;;
71366;SDS011;60030;52.274;8.040;2022-12-18T03:13:24;18.10;;;11.57;;
71366;SDS011;60030;52.274;8.040;2022-12-18T03:15:54;17.47;;;10.47;;
71366;SDS011;60030;52.274;8.040;2022-12-18T03:18:23;18.30;;;10.40;;
71366;SDS011;60030;52.274;8.040;2022-12-18T03:20:53;21.57;;;11.00;;
71366;SDS011;60030;52.274;8.040;2022-12-18T03:23:25;18.60;;;10.97;;
71366;SDS011;60030;52.274;8.040;2022-12-18T03:25:57;21.80;;;11.97;;
71366;SDS011;60030;52.274;8.040;2022-12-18T03:28:33;15.00;;;9.57;;
71366;SDS011;60030;52.274;8.040;2022-12-18T03:31:07;21.60;;;11.50;;
71366;SDS011;60030;52.274;8.040;2022-12-18T03:33:38;21.87;;;11.17;;
71366;SDS011;60030;52.274;8.040;2022-12-18T03:36:08;16.70;;;9.67;;
71366;SDS011;60030;52.274;8.040;2022-12-18T03:38:36;20.13;;;12.13;;
71366;SDS011;60030;52.274;8.040;2022-12-18T03:41:07;19.57;;;11.40;;
71366;SDS011;60030;52.274;8.040;2022-12-18T03:44:02;20.30;;;10.77;;
71366;SDS011;60030;52.274;8.040;2022-12-18T03:46:36;19.17;;;10.83;;
71366;SDS011;60030;52.274;8.040;2022-12-18T03:49:14;21.23;;;11.67;;
71366;SDS011;60030;52.274;8.040;2022-12-18T03:51:51;16.67;;;10.17;;
71366;SDS011;60030;52.274;8.040;2022-12-18T03:54:22;23.30;;;11.33;;
71366;SDS011;60030;52.274;8.040;2022-12-18T03:57:03;19.27;;;10.90;;
71366;SDS011;60030;52.274;8.040;2022-12-18T03:59:35;22.33;;;11.40;;
71366;SDS011;60030;52.274;8.040;2022-12-18T04:02:06;19.77;;;11.50;;
71366;SDS011;60030;52.274;8.040;2022-12-18T04:04:35;17.37;;;11.13;;
71366;SDS011;60030;52.274;8.040;2022-12-18T04:07:04;18.70;;;10.20;;
71366;SDS011;60030;52.274;8.040;2022-12-18T04:09:37;19.40;;;9.87;;
71366;SDS011;60030;52.274;8.040;2022-12-18T04:12:06;18.37;;;10.77;;
71366;SDS011;60030;52.274;8.040;2022-12-18T04:14:36;17.60;;;9.43;;
71366;SDS011;60030;52.274;8.040;2022-12-18T04:17:06;16.20;;;9.47;;
71366;SDS011;60030;52.274;8.040;2022-12-18T04:19:33;18.77;;;10.97;;
71366;SDS011;60030;52.274;8.040;2022-12-18T04:22:02;21.80;;;9.73;;
71366;SDS011;60030;52.274;8.040;2022-12-18T04:24:34;20.80;;;10.57;;
71366;SDS011;60030;52.274;8.040;2022-12-18T04:27:11;18.03;;;9.60;;
71366;SDS011;60030;52.274;8.040;2022-12-18T04:29:44;18.57;;;10.70;;
71366;SDS011;60030;52.274;8.040;2022-12-18T04:32:11;17.50;;;10.70;;
71366;SDS011;60030;52.274;8.040;2022-12-18T04:34:40;16.67;;;9.93;;
71366;SDS011;60030;52.274;8.040;2022-12-18T04:37:08;21.00;;;10.57;;
71366;SDS011;60030;52.274;8.040;2022-12-18T04:39:35;19.37;;;10.10;;
71366;SDS011;60030;52.274;8.040;2022-12-18T04:42:07;20.47;;;10.57;;
71366;SDS011;60030;52.274;8.040;2022-12-18T04:44:34;16.87;;;10.13;;
71366;SDS011;60030;52.274;8.040;2022-12-18T04:47:04;16.10;;;9.67;;
71366;SDS011;60030;52.274;8.040;2022-12-18T04:49:31;16.80;;;9.40;;
71366;SDS011;60030;52.274;8.040;2022-12-18T04:51:58;16.50;;;9.33;;
71366;SDS011;60030;52.274;8.040;2022-12-18T04:54:25;17.13;;;9.10;;
71366;SDS011;60030;52.274;8.040;2022-12-18T04:56:52;20.63;;;9.63;;
71366;SDS011;60030;52.274;8.040;2022-12-18T04:59:19;14.90;;;9.40;;
71366;SDS011;60030;52.274;8.040;2022-12-18T05:01:46;17.43;;;9.93;;
71366;SDS011;60030;52.274;8.040;2022-12-18T05:04:15;18.73;;;9.60;;
71366;SDS011;60030;52.274;8.040;2022-12-18T05:06:42;16.93;;;9.73;;
71366;SDS011;60030;52.274;8.040;2022-12-18T05:09:09;16.33;;;9.77;;
71366;SDS011;60030;52.274;8.040;2022-12-18T05:11:36;19.30;;;9.87;;
71366;SDS011;60030;52.274;8.040;2022-12-18T05:14:03;16.27;;;9.03;;
71366;SDS011;60030;52.274;8.040;2022-12-18T05:16:30;15.17;;;8.33;;
71366;SDS011;60030;52.274;8.040;2022-12-18T05:18:57;19.73;;;9.33;;
71366;SDS011;60030;52.274;8.040;2022-12-18T05:21:26;15.30;;;8.83;;
71366;SDS011;60030;52.274;8.040;2022-12-18T05:23:53;16.93;;;9.10;;
71366;SDS011;60030;52.274;8.040;2022-12-18T05:26:20;16.60;;;9.17;;
71366;SDS011;60030;52.274;8.040;2022-12-18T05:28:47;17.33;;;8.67;;
71366;SDS011;60030;52.274;8.040;2022-12-18T05:31:14;16.90;;;9.00;;
71366;SDS011;60030;52.274;8.040;2022-12-18T05:33:41;17.17;;;9.20;;
71366;SDS011;60030;52.274;8.040;2022-12-18T05:36:08;16.30;;;8.80;;
71366;SDS011;60030;52.274;8.040;2022-12-18T05:38:38;17.67;;;9.30;;
71366;SDS011;60030;52.274;8.040;2022-12-18T05:41:05;14.53;;;7.20;;
71366;SDS011;60030;52.274;8.040;2022-12-18T05:43:34;16.13;;;8.07;;
71366;SDS011;60030;52.274;8.040;2022-12-18T05:46:03;15.77;;;8.23;;
71366;SDS011;60030;52.274;8.040;2022-12-18T05:48:30;15.60;;;8.30;;
71366;SDS011;60030;52.274;8.040;2022-12-18T05:51:02;14.57;;;8.20;;
71366;SDS011;60030;52.274;8.040;2022-12-18T05:53:31;14.97;;;8.50;;
71366;SDS011;60030;52.274;8.040;2022-12-18T05:56:00;19.33;;;8.83;;
71366;SDS011;60030;52.274;8.040;2022-12-18T05:58:28;16.00;;;8.60;;
71366;SDS011;60030;52.274;8.040;2022-12-18T06:00:56;17.73;;;9.17;;
71366;SDS011;60030;52.274;8.040;2022-12-18T06:03:23;15.70;;;8.67;;
71366;SDS011;60030;52.274;8.040;2022-12-18T06:05:51;17.63;;;7.87;;
71366;SDS011;60030;52.274;8.040;2022-12-18T06:08:18;15.17;;;8.00;;
71366;SDS011;60030;52.274;8.040;2022-12-18T06:10:49;13.67;;;7.93;;
71366;SDS011;60030;52.274;8.040;2022-12-18T06:13:19;17.87;;;8.53;;
71366;SDS011;60030;52.274;8.040;2022-12-18T06:15:46;15.23;;;7.90;;
71366;SDS011;60030;52.274;8.040;2022-12-18T06:18:14;14.47;;;7.87;;
71366;SDS011;60030;52.274;8.040;2022-12-18T06:20:41;16.57;;;8.73;;
71366;SDS011;60030;52.274;8.040;2022-12-18T06:23:08;15.00;;;7.57;;
71366;SDS011;60030;52.274;8.040;2022-12-18T06:25:36;14.07;;;8.57;;
71366;SDS011;60030;52.274;8.040;2022-12-18T06:28:04;17.57;;;8.03;;
71366;SDS011;60030;52.274;8.040;2022-12-18T06:30:33;16.80;;;8.30;;
71366;SDS011;60030;52.274;8.040;2022-12-18T06:33:01;18.37;;;8.70;;
71366;SDS011;60030;52.274;8.040;2022-12-18T06:35:28;16.60;;;9.07;;
71366;SDS011;60030;52.274;8.040;2022-12-18T06:37:55;17.90;;;9.17;;
71366;SDS011;60030;52.274;8.040;2022-12-18T06:40:22;17.87;;;8.67;;
71366;SDS011;60030;52.274;8.040;2022-12-18T06:42:49;15.70;;;8.60;;
71366;SDS011;60030;52.274;8.040;2022-12-18T06:45:16;14.93;;;9.10;;
71366;SDS011;60030;52.274;8.040;2022-12-18T06:47:45;20.77;;;9.17;;
71366;SDS011;60030;52.274;8.040;2022-12-18T06:50:12;19.33;;;8.30;;
71366;SDS011;60030;52.274;8.040;2022-12-18T06:52:39;16.83;;;8.83;;
71366;SDS011;60030;52.274;8.040;2022-12-18T06:55:08;15.83;;;9.07;;
71366;SDS011;60030;52.274;8.040;2022-12-18T06:57:35;14.40;;;7.20;;
71366;SDS011;60030;52.274;8.040;2022-12-18T07:00:03;12.67;;;7.93;;
71366;SDS011;60030;52.274;8.040;2022-12-18T07:02:32;11.90;;;7.87;;
71366;SDS011;60030;52.274;8.040;2022-12-18T07:05:00;12.33;;;7.57;;
71366;SDS011;60030;52.274;8.040;2022-12-18T07:07:27;14.63;;;7.73;;
71366;SDS011;60030;52.274;8.040;2022-12-18T07:09:54;14.60;;;8.50;;
71366;SDS011;60030;52.274;8.040;2022-12-18T07:12:21;13.67;;;8.37;;
71366;SDS011;60030;52.274;8.040;2022-12-18T07:14:48;15.87;;;7.60;;
71366;SDS011;60030;52.274;8.040;2022-12-18T07:17:15;16.03;;;8.23;;
71366;SDS011;60030;52.274;8.040;2022-12-18T07:19:42;16.07;;;7.83;;
71366;SDS011;60030;52.274;8.040;2022-12-18T07:22:11;15.80;;;7.50;;
71366;SDS011;60030;52.274;8.040;2022-12-18T07:24:38;15.73;;;7.87;;
71366;SDS011;60030;52.274;8.040;2022-12-18T07:27:05;12.30;;;7.13;;
71366;SDS011;60030;52.274;8.040;2022-12-18T07:29:32;16.47;;;8.10;;
71366;SDS011;60030;52.274;8.040;2022-12-18T07:31:59;15.90;;;7.93;;
71366;SDS011;60030;52.274;8.040;2022-12-18T07:34:26;17.03;;;8.30;;
71366;SDS011;60030;52.274;8.040;2022-12-18T07:36:53;18.57;;;8.17;;
71366;SDS011;60030;52.274;8.040;2022-12-18T07:39:22;15.53;;;7.83;;
71366;SDS011;60030;52.274;8.040;2022-12-18T07:41:49;15.27;;;8.27;;
71366;SDS011;60030;52.274;8.040;2022-12-18T07:44:31;16.83;;;7.33;;
71366;SDS011;60030;52.274;8.040;2022-12-18T07:46:58;12.90;;;7.87;;
71366;SDS011;60030;52.274;8.040;2022-12-18T07:49:26;13.67;;;8.13;;
71366;SDS011;60030;52.274;8.040;2022-12-18T07:51:53;16.13;;;8.20;;
71366;SDS011;60030;52.274;8.040;2022-12-18T07:54:22;15.13;;;8.87;;
71366;SDS011;60030;52.274;8.040;2022-12-18T07:56:50;16.33;;;7.87;;
71366;SDS011;60030;52.274;8.040;2022-12-18T07:59:18;14.60;;;7.67;;
71366;SDS011;60030;52.274;8.040;2022-12-18T08:01:45;15.73;;;8.30;;
71366;SDS011;60030;52.274;8.040;2022-12-18T08:04:12;16.63;;;7.63;;
71366;SDS011;60030;52.274;8.040;2022-12-18T08:06:39;17.83;;;8.10;;
71366;SDS011;60030;52.274;8.040;2022-12-18T08:09:06;57.13;;;23.47;;
71366;SDS011;60030;52.274;8.040;2022-12-18T08:11:35;15.40;;;8.63;;
71366;SDS011;60030;52.274;8.040;2022-12-18T08:14:02;16.00;;;8.00;;
71366;SDS011;60030;52.274;8.040;2022-12-18T08:16:29;15.67;;;8.13;;
71366;SDS011;60030;52.274;8.040;2022-12-18T08:18:56;16.10;;;8.60;;
71366;SDS011;60030;52.274;8.040;2022-12-18T08:21:24;12.93;;;7.23;;
71366;SDS011;60030;52.274;8.040;2022-12-18T08:23:53;12.57;;;8.03;;
71366;SDS011;60030;52.274;8.040;2022-12-18T08:26:21;14.83;;;8.67;;
71366;SDS011;60030;52.274;8.040;2022-12-18T08:28:50;15.77;;;8.60;;
71366;SDS011;60030;52.274;8.040;2022-12-18T08:31:18;18.10;;;8.33;;
71366;SDS011;60030;52.274;8.040;2022-12-18T08:33:47;16.77;;;8.27;;
71366;SDS011;60030;52.274;8.040;2022-12-18T08:36:16;12.70;;;7.07;;
71366;SDS011;60030;52.274;8.040;2022-12-18T08:38:43;13.40;;;7.80;;
71366;SDS011;60030;52.274;8.040;2022-12-18T08:41:11;16.00;;;8.37;;
71366;SDS011;60030;52.274;8.040;2022-12-18T08:43:39;14.90;;;8.50;;
71366;SDS011;60030;52.274;8.040;2022-12-18T08:46:26;16.23;;;8.30;;
71366;SDS011;60030;52.274;8.040;2022-12-18T08:48:57;14.13;;;8.17;;
71366;SDS011;60030;52.274;8.040;2022-12-18T08:51:24;16.37;;;9.20;;
71366;SDS011;60030;52.274;8.040;2022-12-18T08:53:52;14.00;;;8.27;;
71366;SDS011;60030;52.274;8.040;2022-12-18T08:56:19;16.17;;;8.20;;
71366;SDS011;60030;52.274;8.040;2022-12-18T08:58:46;14.27;;;8.57;;
71366;SDS011;60030;52.274;8.040;2022-12-18T09:01:13;17.83;;;8.90;;
71366;SDS011;60030;52.274;8.040;2022-12-18T09:03:41;15.40;;;9.13;;
71366;SDS011;60030;52.274;8.040;2022-12-18T09:06:13;21.90;;;9.37;;
71366;SDS011;60030;52.274;8.040;2022-12-18T09:08:41;15.03;;;8.03;;
71366;SDS011;60030;52.274;8.040;2022-12-18T09:11:10;16.00;;;8.63;;
71366;SDS011;60030;52.274;8.040;2022-12-18T09:13:39;15.37;;;8.80;;
71366;SDS011;60030;52.274;8.040;2022-12-18T09:16:06;16.07;;;8.50;;
71366;SDS011;60030;52.274;8.040;2022-12-18T09:18:33;13.20;;;8.20;;
71366;SDS011;60030;52.274;8.040;2022-12-18T09:21:08;17.30;;;9.17;;
71366;SDS011;60030;52.274;8.040;2022-12-18T09:23:36;15.00;;;8.83;;
71366;SDS011;60030;52.274;8.040;2022-12-18T09:26:03;14.13;;;7.97;;
71366;SDS011;60030;52.274;8.040;2022-12-18T09:28:30;17.43;;;9.03;;
71366;SDS011;60030;52.274;8.040;2022-12-18T09:30:57;15.93;;;9.23;;
71366;SDS011;60030;52.274;8.040;2022-12-18T09:33:24;14.33;;;7.90;;
71366;SDS011;60030;52.274;8.040;2022-12-18T09:35:51;17.97;;;9.47;;
71366;SDS011;60030;52.274;8.040;2022-12-18T09:38:20;17.37;;;8.97;;
71366;SDS011;60030;52.274;8.040;2022-12-18T09:40:49;12.80;;;8.10;;
71366;SDS011;60030;52.274;8.040;2022-12-18T09:43:18;19.13;;;10.20;;
71366;SDS011;60030;52.274;8.040;2022-12-18T09:45:50;14.83;;;8.30;;
71366;SDS011;60030;52.274;8.040;2022-12-18T09:48:21;14.17;;;8.50;;
71366;SDS011;60030;52.274;8.040;2022-12-18T09:50:52;14.77;;;8.20;;
71366;SDS011;60030;52.274;8.040;2022-12-18T09:53:28;17.00;;;8.70;;
71366;SDS011;60030;52.274;8.040;2022-12-18T09:55:59;15.60;;;8.50;;
71366;SDS011;60030;52.274;8.040;2022-12-18T09:58:28;15.70;;;8.43;;
71366;SDS011;60030;52.274;8.040;2022-12-18T10:00:59;16.27;;;8.37;;
71366;SDS011;60030;52.274;8.040;2022-12-18T10:03:26;14.80;;;8.87;;
71366;SDS011;60030;52.274;8.040;2022-12-18T10:06:02;12.77;;;7.53;;
71366;SDS011;60030;52.274;8.040;2022-12-18T10:08:36;18.73;;;8.60;;
71366;SDS011;60030;52.274;8.040;2022-12-18T10:11:16;14.90;;;8.90;;
71366;SDS011;60030;52.274;8.040;2022-12-18T10:13:55;14.93;;;8.83;;
71366;SDS011;60030;52.274;8.040;2022-12-18T10:16:27;17.00;;;9.60;;
71366;SDS011;60030;52.274;8.040;2022-12-18T10:19:07;16.97;;;9.33;;
71366;SDS011;60030;52.274;8.040;2022-12-18T10:21:49;14.17;;;9.23;;
71366;SDS011;60030;52.274;8.040;2022-12-18T10:24:24;16.67;;;9.43;;
71366;SDS011;60030;52.274;8.040;2022-12-18T10:26:59;19.40;;;10.40;;
71366;SDS011;60030;52.274;8.040;2022-12-18T10:29:35;17.37;;;10.60;;
71366;SDS011;60030;52.274;8.040;2022-12-18T10:32:02;17.10;;;10.40;;
71366;SDS011;60030;52.274;8.040;2022-12-18T10:34:30;17.27;;;11.10;;
71366;SDS011;60030;52.274;8.040;2022-12-18T10:36:57;22.13;;;11.63;;
71366;SDS011;60030;52.274;8.040;2022-12-18T10:39:28;15.80;;;9.93;;
71366;SDS011;60030;52.274;8.040;2022-12-18T10:41:59;21.83;;;11.40;;
71366;SDS011;60030;52.274;8.040;2022-12-18T10:44:38;20.40;;;11.77;;
71366;SDS011;60030;52.274;8.040;2022-12-18T10:47:06;16.97;;;11.17;;
71366;SDS011;60030;52.274;8.040;2022-12-18T10:49:39;17.03;;;11.07;;
71366;SDS011;60030;52.274;8.040;2022-12-18T10:52:16;21.30;;;12.10;;
71366;SDS011;60030;52.274;8.040;2022-12-18T10:54:48;18.23;;;10.77;;
71366;SDS011;60030;52.274;8.040;2022-12-18T10:57:28;17.37;;;11.47;;
71366;SDS011;60030;52.274;8.040;2022-12-18T10:59:57;19.63;;;11.83;;
71366;SDS011;60030;52.274;8.040;2022-12-18T11:02:27;19.83;;;11.63;;
71366;SDS011;60030;52.274;8.040;2022-12-18T11:05:00;20.10;;;11.13;;
71366;SDS011;60030;52.274;8.040;2022-12-18T11:07:35;22.10;;;14.00;;
71366;SDS011;60030;52.274;8.040;2022-12-18T11:10:17;17.87;;;11.27;;
71366;SDS011;60030;52.274;8.040;2022-12-18T11:12:45;19.67;;;11.70;;
71366;SDS011;60030;52.274;8.040;2022-12-18T11:15:16;20.33;;;11.57;;
71366;SDS011;60030;52.274;8.040;2022-12-18T11:17:47;22.97;;;12.87;;
71366;SDS011;60030;52.274;8.040;2022-12-18T11:20:20;16.60;;;10.80;;
71366;SDS011;60030;52.274;8.040;2022-12-18T11:22:55;14.97;;;10.57;;
71366;SDS011;60030;52.274;8.040;2022-12-18T11:25:25;18.30;;;10.07;;
71366;SDS011;60030;52.274;8.040;2022-12-18T11:27:55;15.73;;;9.90;;
71366;SDS011;60030;52.274;8.040;2022-12-18T11:30:25;15.87;;;10.60;;
71366;SDS011;60030;52.274;8.040;2022-12-18T11:32:54;20.53;;;10.47;;
71366;SDS011;60030;52.274;8.040;2022-12-18T11:35:29;19.17;;;10.07;;
71366;SDS011;60030;52.274;8.040;2022-12-18T11:38:06;18.33;;;10.00;;
71366;SDS011;60030;52.274;8.040;2022-12-18T11:40:42;15.83;;;9.20;;
71366;SDS011;60030;52.274;8.040;2022-12-18T11:43:13;19.77;;;10.10;;
71366;SDS011;60030;52.274;8.040;2022-12-18T11:45:47;17.17;;;10.37;;
71366;SDS011;60030;52.274;8.040;2022-12-18T11:48:18;18.67;;;10.73;;
71366;SDS011;60030;52.274;8.040;2022-12-18T11:50:50;18.00;;;10.77;;
71366;SDS011;60030;52.274;8.040;2022-12-18T11:53:19;16.20;;;10.37;;
71366;SDS011;60030;52.274;8.040;2022-12-18T11:55:58;18.80;;;10.50;;
71366;SDS011;60030;52.274;8.040;2022-12-18T11:58:45;16.83;;;10.60;;
71366;SDS011;60030;52.274;8.040;2022-12-18T12:01:27;13.50;;;8.83;;
71366;SDS011;60030;52.274;8.040;2022-12-18T12:04:12;15.47;;;9.10;;
71366;SDS011;60030;52.274;8.040;2022-12-18T12:07:04;18.60;;;10.03;;
71366;SDS011;60030;52.274;8.040;2022-12-18T12:09:40;17.10;;;9.30;;
71366;SDS011;60030;52.274;8.040;2022-12-18T12:12:23;15.97;;;9.17;;
71366;SDS011;60030;52.274;8.040;2022-12-18T12:15:13;20.97;;;14.30;;
71366;SDS011;60030;52.274;8.040;2022-12-18T12:17:50;15.23;;;9.47;;
71366;SDS011;60030;52.274;8.040;2022-12-18T12:20:22;14.13;;;8.73;;
71366;SDS011;60030;52.274;8.040;2022-12-18T12:22:59;17.17;;;9.43;;
71366;SDS011;60030;52.274;8.040;2022-12-18T12:25:33;14.00;;;8.33;;
71366;SDS011;60030;52.274;8.040;2022-12-18T12:28:15;14.53;;;8.20;;
71366;SDS011;60030;52.274;8.040;2022-12-18T12:30:52;13.30;;;8.27;;
71366;SDS011;60030;52.274;8.040;2022-12-18T12:33:29;15.40;;;8.00;;
71366;SDS011;60030;52.274;8.040;2022-12-18T12:36:05;14.20;;;8.47;;
71366;SDS011;60030;52.274;8.040;2022-12-18T12:38:40;14.60;;;7.93;;
71366;SDS011;60030;52.274;8.040;2022-12-18T12:41:12;14.33;;;7.27;;
71366;SDS011;60030;52.274;8.040;2022-12-18T12:43:57;15.13;;;9.43;;
71366;SDS011;60030;52.274;8.040;2022-12-18T12:46:27;11.70;;;7.30;;
71366;SDS011;60030;52.274;8.040;2022-12-18T12:48:59;13.17;;;7.90;;
71366;SDS011;60030;52.274;8.040;2022-12-18T12:51:30;13.37;;;8.43;;
71366;SDS011;60030;52.274;8.040;2022-12-18T12:54:00;11.63;;;7.57;;
71366;SDS011;60030;52.274;8.040;2022-12-18T12:56:37;13.93;;;7.23;;
71366;SDS011;60030;52.274;8.040;2022-12-18T12:59:13;12.50;;;7.40;;
71366;SDS011;60030;52.274;8.040;2022-12-18T13:01:49;12.50;;;7.13;;
71366;SDS011;60030;52.274;8.040;2022-12-18T13:04:21;10.90;;;6.63;;
71366;SDS011;60030;52.274;8.040;2022-12-18T13:06:57;10.07;;;6.77;;
71366;SDS011;60030;52.274;8.040;2022-12-18T13:09:29;11.80;;;7.00;;
71366;SDS011;60030;52.274;8.040;2022-12-18T13:12:03;11.73;;;6.20;;
71366;SDS011;60030;52.274;8.040;2022-12-18T13:14:50;8.33;;;5.37;;
71366;SDS011;60030;52.274;8.040;2022-12-18T13:17:26;10.10;;;6.10;;
71366;SDS011;60030;52.274;8.040;2022-12-18T13:20:04;9.13;;;5.67;;
71366;SDS011;60030;52.274;8.040;2022-12-18T13:22:40;12.37;;;6.30;;
71366;SDS011;60030;52.274;8.040;2022-12-18T13:25:32;11.73;;;5.90;;
71366;SDS011;60030;52.274;8.040;2022-12-18T13:28:08;9.70;;;5.77;;
71366;SDS011;60030;52.274;8.040;2022-12-18T13:30:43;13.67;;;6.40;;
71366;SDS011;60030;52.274;8.040;2022-12-18T13:33:30;12.40;;;6.23;;
71366;SDS011;60030;52.274;8.040;2022-12-18T13:39:22;9.37;;;5.70;;
71366;SDS011;60030;52.274;8.040;2022-12-18T13:45:35;9.20;;;5.67;;
71366;SDS011;60030;52.274;8.040;2022-12-18T13:48:16;9.30;;;5.70;;
71366;SDS011;60030;52.274;8.040;2022-12-18T13:50:48;9.67;;;5.53;;
71366;SDS011;60030;52.274;8.040;2022-12-18T13:53:22;10.83;;;5.93;;
71366;SDS011;60030;52.274;8.040;2022-12-18T13:55:52;9.57;;;5.60;;
71366;SDS011;60030;52.274;8.040;2022-12-18T13:58:20;9.23;;;5.30;;
71366;SDS011;60030;52.274;8.040;2022-12-18T14:00:48;9.67;;;5.33;;
71366;SDS011;60030;52.274;8.040;2022-12-18T14:03:20;10.73;;;5.90;;
71366;SDS011;60030;52.274;8.040;2022-12-18T14:05:52;8.30;;;5.70;;
71366;SDS011;60030;52.274;8.040;2022-12-18T14:08:21;9.87;;;6.37;;
71366;SDS011;60030;52.274;8.040;2022-12-18T14:10:53;8.03;;;5.57;;
71366;SDS011;60030;52.274;8.040;2022-12-18T14:13:23;8.67;;;5.90;;
71366;SDS011;60030;52.274;8.040;2022-12-18T14:15:54;8.53;;;5.63;;
71366;SDS011;60030;52.274;8.040;2022-12-18T14:18:23;9.93;;;6.60;;
71366;SDS011;60030;52.274;8.040;2022-12-18T14:20:54;10.00;;;6.83;;
71366;SDS011;60030;52.274;8.040;2022-12-18T14:23:25;8.37;;;5.90;;
71366;SDS011;60030;52.274;8.040;2022-12-18T14:25:53;9.87;;;5.30;;
71366;SDS011;60030;52.274;8.040;2022-12-18T14:28:20;10.67;;;5.47;;
71366;SDS011;60030;52.274;8.040;2022-12-18T14:30:48;10.23;;;6.00;;
71366;SDS011;60030;52.274;8.040;2022-12-18T14:33:17;9.33;;;5.90;;
71366;SDS011;60030;52.274;8.040;2022-12-18T14:35:53;9.73;;;6.33;;
71366;SDS011;60030;52.274;8.040;2022-12-18T14:38:23;11.67;;;5.93;;
71366;SDS011;60030;52.274;8.040;2022-12-18T14:41:02;9.33;;;6.07;;
71366;SDS011;60030;52.274;8.040;2022-12-18T14:43:32;9.50;;;5.90;;
71366;SDS011;60030;52.274;8.040;2022-12-18T14:46:00;8.37;;;5.67;;
71366;SDS011;60030;52.274;8.040;2022-12-18T14:48:35;14.90;;;7.47;;
71366;SDS011;60030;52.274;8.040;2022-12-18T14:51:05;11.37;;;6.03;;
71366;SDS011;60030;52.274;8.040;2022-12-18T14:53:34;8.93;;;5.43;;
71366;SDS011;60030;52.274;8.040;2022-12-18T14:56:04;9.37;;;5.93;;
71366;SDS011;60030;52.274;8.040;2022-12-18T14:58:44;10.47;;;6.20;;
71366;SDS011;60030;52.274;8.040;2022-12-18T15:01:19;7.97;;;5.70;;